createdAt,value
2023-03-01T00:02:19.063Z,6.40
2023-03-01T00:04:46.391Z,6.40
2023-03-01T00:07:13.863Z,6.40
2023-03-01T00:09:41.238Z,6.30
2023-03-01T00:12:08.602Z,6.20
2023-03-01T00:14:36.885Z,6.20
2023-03-01T00:17:04.354Z,6.20
2023-03-01T00:19:33.535Z,6.20
2023-03-01T00:22:00.865Z,6.20
2023-03-01T00:24:28.290Z,6.10
2023-03-01T00:26:56.937Z,6.00
2023-03-01T00:29:26.014Z,6.00
2023-03-01T00:31:53.405Z,6.00
2023-03-01T00:34:20.748Z,6.00
2023-03-01T00:36:48.065Z,5.90
2023-03-01T00:39:16.418Z,6.00
2023-03-01T00:41:44.307Z,6.00
2023-03-01T00:44:12.069Z,6.00
2023-03-01T00:46:39.839Z,6.10
2023-03-01T00:49:07.229Z,6.10
2023-03-01T00:51:34.759Z,6.20
2023-03-01T00:54:03.728Z,6.10
2023-03-01T00:56:32.059Z,5.70
2023-03-01T00:58:59.713Z,6.10
2023-03-01T01:01:30.954Z,6.10
2023-03-01T01:03:59.823Z,6.40
2023-03-01T01:06:33.649Z,5.90
2023-03-01T01:09:01.848Z,5.90
2023-03-01T01:11:30.718Z,6.00
2023-03-01T01:13:58.831Z,6.50
2023-03-01T01:16:28.245Z,5.90
2023-03-01T01:18:56.207Z,6.00
2023-03-01T01:21:25.318Z,6.00
2023-03-01T01:23:53.173Z,6.10
2023-03-01T01:26:21.860Z,6.10
2023-03-01T01:28:49.541Z,6.10
2023-03-01T01:31:18.024Z,6.20
2023-03-01T01:33:45.766Z,6.10
2023-03-01T01:36:13.254Z,6.10
2023-03-01T01:38:40.715Z,6.10
2023-03-01T01:41:08.296Z,6.10
2023-03-01T01:43:38.866Z,6.10
2023-03-01T01:46:17.260Z,6.10
2023-03-01T01:48:49.679Z,6.00
2023-03-01T01:51:22.594Z,6.10
2023-03-01T01:53:55.826Z,6.10
2023-03-01T01:56:26.241Z,6.00
2023-03-01T01:58:54.189Z,6.00
2023-03-01T02:01:21.581Z,6.00
2023-03-01T02:03:49.585Z,6.00
2023-03-01T02:06:31.153Z,6.00
2023-03-01T02:09:01.949Z,6.00
2023-03-01T02:11:32.215Z,6.00
2023-03-01T02:13:59.799Z,6.10
2023-03-01T02:16:27.994Z,6.10
2023-03-01T02:18:55.752Z,6.10
2023-03-01T02:21:34.730Z,6.10
2023-03-01T02:24:20.299Z,6.10
2023-03-01T02:26:52.584Z,6.10
2023-03-01T02:29:19.991Z,6.10
2023-03-01T02:31:48.069Z,6.10
2023-03-01T02:34:19.517Z,6.10
2023-03-01T02:36:52.390Z,6.10
2023-03-01T02:39:26.924Z,5.30
2023-03-01T02:41:57.331Z,6.10
2023-03-01T02:44:25.091Z,6.10
2023-03-01T02:46:55.307Z,6.10
2023-03-01T02:49:35.586Z,6.20
2023-03-01T02:52:03.546Z,6.00
2023-03-01T02:54:45.505Z,6.00
2023-03-01T02:57:13.228Z,6.00
2023-03-01T02:59:41.241Z,6.00
2023-03-01T03:02:38.172Z,6.00
2023-03-01T03:05:09.305Z,7.50
2023-03-01T03:07:38.786Z,6.00
2023-03-01T03:10:08.232Z,6.00
2023-03-01T03:12:35.492Z,6.00
2023-03-01T03:15:09.740Z,6.10
2023-03-01T03:17:39.428Z,6.10
2023-03-01T03:20:12.896Z,6.10
2023-03-01T03:22:41.035Z,5.10
2023-03-01T03:25:11.875Z,6.10
2023-03-01T03:27:40.573Z,6.10
2023-03-01T03:30:09.949Z,4.80
2023-03-01T03:32:37.912Z,6.10
2023-03-01T03:35:10.484Z,6.10
2023-03-01T03:38:00.060Z,6.10
2023-03-01T03:40:27.948Z,6.10
2023-03-01T03:42:55.837Z,6.10
2023-03-01T03:45:23.316Z,6.00
2023-03-01T03:47:50.865Z,6.00
2023-03-01T03:50:19.128Z,6.00
2023-03-01T03:52:46.397Z,6.00
2023-03-01T03:55:14.036Z,6.00
2023-03-01T03:57:42.287Z,6.00
2023-03-01T04:00:15.930Z,6.10
2023-03-01T04:02:44.570Z,6.00
2023-03-01T04:05:13.647Z,6.00
2023-03-01T04:07:42.257Z,6.00
2023-03-01T04:10:20.398Z,6.00
2023-03-01T04:12:47.676Z,6.00
2023-03-01T04:15:14.949Z,5.90
2023-03-01T04:17:43.769Z,6.00
2023-03-01T04:20:25.705Z,6.00
2023-03-01T04:22:58.433Z,6.00
2023-03-01T04:25:26.320Z,6.00
2023-03-01T04:27:53.713Z,6.00
2023-03-01T04:30:21.399Z,6.00
2023-03-01T04:32:48.664Z,6.00
2023-03-01T04:35:16.011Z,6.00
2023-03-01T04:37:43.296Z,6.00
2023-03-01T04:40:13.979Z,6.00
2023-03-01T04:42:41.309Z,5.90
2023-03-01T04:45:14.259Z,5.90
2023-03-01T04:47:46.970Z,5.90
2023-03-01T04:50:21.236Z,6.40
2023-03-01T04:52:48.837Z,5.90
2023-03-01T04:55:16.300Z,5.90
2023-03-01T04:57:43.644Z,5.90
2023-03-01T05:00:21.256Z,5.90
2023-03-01T05:02:57.167Z,5.80
2023-03-01T05:05:27.835Z,5.80
2023-03-01T05:08:00.127Z,5.70
2023-03-01T05:10:30.228Z,5.80
2023-03-01T05:12:58.509Z,5.80
2023-03-01T05:15:27.686Z,5.80
2023-03-01T05:17:59.285Z,5.80
2023-03-01T05:20:30.567Z,5.80
2023-03-01T05:23:00.285Z,5.80
2023-03-01T05:25:28.418Z,5.80
2023-03-01T05:27:55.704Z,5.80
2023-03-01T05:30:23.573Z,5.80
2023-03-01T05:32:56.985Z,5.80
2023-03-01T05:35:24.784Z,5.80
2023-03-01T05:37:52.354Z,6.50
2023-03-01T05:40:23.507Z,5.80
2023-03-01T05:42:55.685Z,5.90
2023-03-01T05:45:24.848Z,5.90
2023-03-01T05:47:52.532Z,5.80
2023-03-01T05:50:26.878Z,5.80
2023-03-01T05:53:06.800Z,5.80
2023-03-01T05:55:34.117Z,5.80
2023-03-01T05:58:07.056Z,5.80
2023-03-01T06:00:35.276Z,5.80
2023-03-01T06:03:02.785Z,5.80
2023-03-01T06:05:30.475Z,5.80
2023-03-01T06:08:00.821Z,5.80
2023-03-01T06:10:28.154Z,5.90
2023-03-01T06:12:55.645Z,5.90
2023-03-01T06:15:23.680Z,5.90
2023-03-01T06:17:51.717Z,5.90
2023-03-01T06:20:21.920Z,5.80
2023-03-01T06:22:50.275Z,5.80
2023-03-01T06:25:20.563Z,5.90
2023-03-01T06:27:49.648Z,5.80
2023-03-01T06:30:19.508Z,5.70
2023-03-01T06:32:46.801Z,5.70
2023-03-01T06:35:18.271Z,5.80
2023-03-01T06:37:46.898Z,5.80
2023-03-01T06:40:15.047Z,5.80
2023-03-01T06:42:44.070Z,5.80
2023-03-01T06:45:11.835Z,5.80
2023-03-01T06:47:39.338Z,5.80
2023-03-01T06:50:07.459Z,5.80
2023-03-01T06:52:35.264Z,5.70
2023-03-01T06:55:02.677Z,5.80
2023-03-01T06:57:30.266Z,5.70
2023-03-01T06:59:57.605Z,6.80
2023-03-01T07:02:26.141Z,5.70
2023-03-01T07:04:53.743Z,5.80
2023-03-01T07:07:21.080Z,5.50
2023-03-01T07:09:49.839Z,5.80
2023-03-01T07:12:17.579Z,5.70
2023-03-01T07:14:45.316Z,5.70
2023-03-01T07:17:12.797Z,5.60
2023-03-01T07:19:40.159Z,5.70
2023-03-01T07:22:08.973Z,5.70
2023-03-01T07:24:36.302Z,5.70
2023-03-01T07:27:03.697Z,5.60
2023-03-01T07:29:31.237Z,5.60
2023-03-01T07:31:59.481Z,5.60
2023-03-01T07:34:26.936Z,5.60
2023-03-01T07:36:54.186Z,5.60
2023-03-01T07:39:21.427Z,5.60
2023-03-01T07:41:48.785Z,5.70
2023-03-01T07:44:17.492Z,5.70
2023-03-01T07:46:45.361Z,5.70
2023-03-01T07:49:12.742Z,5.70
2023-03-01T07:51:40.039Z,5.70
2023-03-01T07:54:07.324Z,5.70
2023-03-01T07:56:34.597Z,5.70
2023-03-01T07:59:01.997Z,5.60
2023-03-01T08:01:29.472Z,6.00
2023-03-01T08:03:56.766Z,5.70
2023-03-01T08:06:24.066Z,5.70
2023-03-01T08:08:51.506Z,5.70
2023-03-01T08:11:18.818Z,5.80
2023-03-01T08:13:51.357Z,5.70
2023-03-01T08:16:19.393Z,5.40
2023-03-01T08:18:47.008Z,6.60
2023-03-01T08:21:17.970Z,5.70
2023-03-01T08:23:46.230Z,5.70
2023-03-01T08:26:19.644Z,5.80
2023-03-01T08:28:48.560Z,5.80
2023-03-01T08:31:21.641Z,5.80
2023-03-01T08:33:52.602Z,5.90
2023-03-01T08:36:20.741Z,6.00
2023-03-01T08:38:48.201Z,6.00
2023-03-01T08:41:15.721Z,6.10
2023-03-01T08:43:43.131Z,6.20
2023-03-01T08:46:11.193Z,6.10
2023-03-01T08:48:39.008Z,6.20
2023-03-01T08:51:16.372Z,6.20
2023-03-01T08:53:44.085Z,6.20
2023-03-01T08:56:12.131Z,6.30
2023-03-01T08:58:40.857Z,6.30
2023-03-01T09:01:09.949Z,6.40
2023-03-01T09:03:37.869Z,6.40
2023-03-01T09:06:06.909Z,6.50
2023-03-01T09:08:42.856Z,6.40
2023-03-01T09:11:13.312Z,6.50
2023-03-01T09:13:43.749Z,6.60
2023-03-01T09:16:12.805Z,6.60
2023-03-01T09:18:40.335Z,7.80
2023-03-01T09:21:16.357Z,6.80
2023-03-01T09:23:48.217Z,6.80
2023-03-01T09:26:22.283Z,6.80
2023-03-01T09:28:52.068Z,6.90
2023-03-01T09:31:21.235Z,6.90
2023-03-01T09:33:50.490Z,6.80
2023-03-01T09:36:24.019Z,6.70
2023-03-01T09:38:51.643Z,7.60
2023-03-01T09:41:18.958Z,6.80
2023-03-01T09:43:56.492Z,6.70
2023-03-01T09:46:26.526Z,6.80
2023-03-01T09:49:03.811Z,6.80
2023-03-01T09:51:34.838Z,6.50
2023-03-01T09:54:09.391Z,6.70
2023-03-01T09:56:45.781Z,6.70
2023-03-01T09:59:16.232Z,6.70
2023-03-01T10:01:55.571Z,6.70
2023-03-01T10:04:59.988Z,6.70
2023-03-01T10:07:39.336Z,6.70
2023-03-01T10:10:17.135Z,6.80
2023-03-01T10:12:45.997Z,6.70
2023-03-01T10:15:19.136Z,6.80
2023-03-01T10:18:08.771Z,6.80
2023-03-01T10:21:03.071Z,6.90
2023-03-01T10:23:35.604Z,7.10
2023-03-01T10:26:06.144Z,7.10
2023-03-01T10:28:36.659Z,7.20
2023-03-01T10:31:05.033Z,7.20
2023-03-01T10:33:36.628Z,7.30
2023-03-01T10:36:04.148Z,7.30
2023-03-01T10:38:48.168Z,7.30
2023-03-01T10:41:15.518Z,7.30
2023-03-01T10:43:50.813Z,7.30
2023-03-01T10:46:30.309Z,7.30
2023-03-01T10:49:13.443Z,7.20
2023-03-01T10:51:46.340Z,7.30
2023-03-01T10:54:34.318Z,7.80
2023-03-01T10:57:04.959Z,7.40
2023-03-01T10:59:35.131Z,7.40
2023-03-01T11:02:38.046Z,7.40
2023-03-01T11:05:17.745Z,7.40
2023-03-01T11:07:49.931Z,7.40
2023-03-01T11:10:23.685Z,8.90
2023-03-01T11:12:53.128Z,7.50
2023-03-01T11:15:29.151Z,7.50
2023-03-01T11:18:08.975Z,7.50
2023-03-01T11:20:41.295Z,7.50
2023-03-01T11:23:15.518Z,7.50
2023-03-01T11:25:55.085Z,7.50
2023-03-01T11:28:23.824Z,7.90
2023-03-01T11:31:09.023Z,7.50
2023-03-01T11:33:44.921Z,7.60
2023-03-01T11:36:27.999Z,7.50
2023-03-01T11:38:57.510Z,7.50
2023-03-01T11:41:33.357Z,7.50
2023-03-01T11:44:17.728Z,7.60
2023-03-01T11:47:01.037Z,7.50
2023-03-01T11:49:50.386Z,7.50
2023-03-01T11:52:17.584Z,7.70
2023-03-01T11:54:57.341Z,7.50
2023-03-01T11:57:46.424Z,7.60
2023-03-01T12:00:34.841Z,7.60
2023-03-01T12:03:43.583Z,7.60
2023-03-01T12:06:38.524Z,7.50
2023-03-01T12:09:15.116Z,7.50
2023-03-01T12:11:48.578Z,8.80
2023-03-01T12:14:15.867Z,7.50
2023-03-01T12:17:07.185Z,6.90
2023-03-01T12:19:44.289Z,7.40
2023-03-01T12:22:31.107Z,7.60
2023-03-01T12:25:26.537Z,7.60
2023-03-01T12:28:29.071Z,7.60
2023-03-01T12:31:15.167Z,7.60
2023-03-01T12:34:04.050Z,7.70
2023-03-01T12:36:40.288Z,7.70
2023-03-01T12:39:25.398Z,7.80
2023-03-01T12:42:20.196Z,7.80
2023-03-01T12:45:04.064Z,7.90
2023-03-01T12:47:37.138Z,7.80
2023-03-01T12:50:21.436Z,7.80
2023-03-01T12:52:55.975Z,7.80
2023-03-01T12:55:35.415Z,7.80
2023-03-01T12:58:26.280Z,7.80
2023-03-01T13:01:15.616Z,7.80
2023-03-01T13:04:07.004Z,7.70
2023-03-01T13:06:59.600Z,7.60
2023-03-01T13:09:32.917Z,7.60
2023-03-01T13:12:01.727Z,7.60
2023-03-01T13:14:36.631Z,7.60
2023-03-01T13:17:03.994Z,7.60
2023-03-01T13:19:33.342Z,7.70
2023-03-01T13:22:01.452Z,7.40
2023-03-01T13:24:39.260Z,7.70
2023-03-01T13:27:10.792Z,7.80
2023-03-01T13:29:49.801Z,7.80
2023-03-01T13:32:23.504Z,8.30
2023-03-01T13:35:01.949Z,8.00
2023-03-01T13:37:36.027Z,8.00
2023-03-01T13:40:26.872Z,8.00
2023-03-01T13:43:06.229Z,8.00
2023-03-01T13:45:42.172Z,8.00
2023-03-01T13:48:23.376Z,8.00
2023-03-01T13:51:01.607Z,7.90
2023-03-01T13:53:34.669Z,8.00
2023-03-01T13:56:13.649Z,7.90
2023-03-01T13:59:00.577Z,7.80
2023-03-01T14:01:32.880Z,7.80
2023-03-01T14:04:01.066Z,7.60
2023-03-01T14:06:33.771Z,7.70
2023-03-01T14:09:25.445Z,7.70
2023-03-01T14:12:11.491Z,7.70
2023-03-01T14:14:52.520Z,7.70
2023-03-01T14:17:31.737Z,7.80
2023-03-01T14:20:02.042Z,7.80
2023-03-01T14:22:33.113Z,7.70
2023-03-01T14:25:03.336Z,7.70
2023-03-01T14:27:40.454Z,7.70
2023-03-01T14:30:31.173Z,7.70
2023-03-01T14:33:04.258Z,7.80
2023-03-01T14:35:37.064Z,7.90
2023-03-01T14:38:04.721Z,7.90
2023-03-01T14:40:35.938Z,8.00
2023-03-01T14:43:11.479Z,8.10
2023-03-01T14:45:39.075Z,8.10
2023-03-01T14:48:08.277Z,8.00
2023-03-01T14:50:37.320Z,8.00
2023-03-01T14:53:07.609Z,8.00
2023-03-01T14:55:42.522Z,8.00
2023-03-01T14:58:20.460Z,8.00
2023-03-01T15:00:55.768Z,8.00
2023-03-01T15:03:29.031Z,8.00
2023-03-01T15:05:56.662Z,8.00
2023-03-01T15:08:34.012Z,8.00
2023-03-01T15:11:25.753Z,8.70
2023-03-01T15:13:53.943Z,8.00
2023-03-01T15:16:25.752Z,8.00
2023-03-01T15:18:57.610Z,8.00
2023-03-01T15:21:38.019Z,8.10
2023-03-01T15:24:13.079Z,8.10
2023-03-01T15:26:46.772Z,8.20
2023-03-01T15:29:19.076Z,9.00
2023-03-01T15:32:05.207Z,8.20
2023-03-01T15:34:38.404Z,8.20
2023-03-01T15:37:28.436Z,8.20
2023-03-01T15:39:57.938Z,8.20
2023-03-01T15:42:31.352Z,8.30
2023-03-01T15:45:13.112Z,8.90
2023-03-01T15:47:42.130Z,8.40
2023-03-01T15:50:31.320Z,8.30
2023-03-01T15:53:00.105Z,8.30
2023-03-01T15:55:34.208Z,8.20
2023-03-01T15:58:10.818Z,8.20
2023-03-01T16:00:42.236Z,8.20
2023-03-01T16:03:13.004Z,8.30
2023-03-01T16:05:40.561Z,8.30
2023-03-01T16:08:07.898Z,8.30
2023-03-01T16:10:36.263Z,8.30
2023-03-01T16:13:04.056Z,6.90
2023-03-01T16:15:35.635Z,8.30
2023-03-01T16:18:03.743Z,8.30
2023-03-01T16:20:33.828Z,8.30
2023-03-01T16:23:06.801Z,8.10
2023-03-01T16:25:35.297Z,8.30
2023-03-01T16:28:06.084Z,8.20
2023-03-01T16:30:37.080Z,8.20
2023-03-01T16:33:19.119Z,8.10
2023-03-01T16:35:52.184Z,8.10
2023-03-01T16:38:19.556Z,8.10
2023-03-01T16:40:50.985Z,8.10
2023-03-01T16:43:18.351Z,8.10
2023-03-01T16:45:46.536Z,8.10
2023-03-01T16:48:14.093Z,8.10
2023-03-01T16:50:41.943Z,8.10
2023-03-01T16:53:09.435Z,8.10
2023-03-01T16:55:36.932Z,8.10
2023-03-01T16:58:05.600Z,8.00
2023-03-01T17:00:33.178Z,8.00
2023-03-01T17:03:00.739Z,7.60
2023-03-01T17:05:28.559Z,8.00
2023-03-01T17:07:56.940Z,8.00
2023-03-01T17:10:24.256Z,8.00
2023-03-01T17:12:52.243Z,8.00
2023-03-01T17:15:19.971Z,7.90
2023-03-01T17:17:52.328Z,7.90
2023-03-01T17:20:20.130Z,7.90
2023-03-01T17:22:47.549Z,7.80
2023-03-01T17:25:16.054Z,5.80
2023-03-01T17:27:43.573Z,7.80
2023-03-01T17:30:13.031Z,7.80
2023-03-01T17:32:40.868Z,7.80
2023-03-01T17:35:09.450Z,7.80
2023-03-01T17:37:38.092Z,7.80
2023-03-01T17:40:07.419Z,7.80
2023-03-01T17:42:34.799Z,7.80
2023-03-01T17:45:02.257Z,7.80
2023-03-01T17:47:51.582Z,7.90
2023-03-01T17:55:20.558Z,7.70
2023-03-01T18:06:58.553Z,7.70
2023-03-01T18:09:27.352Z,7.60
2023-03-01T18:11:54.783Z,7.60
2023-03-01T18:14:22.727Z,7.60
2023-03-01T18:16:50.322Z,7.60
2023-03-01T18:19:17.689Z,7.60
2023-03-01T18:21:45.008Z,7.60
2023-03-01T18:24:12.582Z,7.60
2023-03-01T18:26:40.398Z,7.60
2023-03-01T18:29:08.358Z,7.60
2023-03-01T18:31:35.940Z,7.60
2023-03-01T18:34:03.778Z,7.60
2023-03-01T18:36:34.994Z,7.60
2023-03-01T18:39:04.215Z,7.60
2023-03-01T18:41:33.421Z,7.60
2023-03-01T18:44:02.525Z,7.50
2023-03-01T18:46:30.467Z,8.40
2023-03-01T18:48:58.370Z,7.50
2023-03-01T18:51:28.366Z,7.50
2023-03-01T18:53:58.648Z,7.50
2023-03-01T18:56:26.690Z,7.50
2023-03-01T18:58:54.035Z,7.50
2023-03-01T19:01:24.158Z,7.50
2023-03-01T19:03:52.698Z,7.40
2023-03-01T19:06:20.940Z,7.10
2023-03-01T19:08:48.734Z,7.50
2023-03-01T19:11:17.830Z,7.40
2023-03-01T19:13:47.283Z,7.40
2023-03-01T19:16:18.472Z,7.40
2023-03-01T19:18:54.796Z,7.40
2023-03-01T19:21:25.294Z,6.80
2023-03-01T19:24:45.500Z,7.30
2023-03-01T19:28:18.567Z,7.30
2023-03-01T19:34:58.563Z,7.20
2023-03-01T19:56:15.761Z,6.90
2023-03-01T20:03:33.188Z,7.10
2023-03-01T20:09:47.041Z,7.10
2023-03-01T20:16:34.851Z,7.10
2023-03-01T20:22:32.836Z,7.10
2023-03-01T20:28:51.840Z,7.30
2023-03-01T20:31:21.598Z,7.30
2023-03-01T20:33:49.686Z,7.30
2023-03-01T20:36:16.966Z,7.30
2023-03-01T20:38:44.505Z,7.30
2023-03-01T20:44:44.661Z,7.20
2023-03-01T20:47:13.532Z,7.30
2023-03-01T20:49:41.073Z,7.20
2023-03-01T20:52:08.676Z,7.20
2023-03-01T20:54:42.707Z,9.00
2023-03-01T20:57:10.404Z,7.20
2023-03-01T20:59:38.277Z,7.10
2023-03-01T21:02:05.783Z,7.00
2023-03-01T21:04:33.293Z,7.00
2023-03-01T21:07:00.784Z,7.00
2023-03-01T21:09:28.103Z,7.40
2023-03-01T21:11:55.717Z,6.80
2023-03-01T21:14:23.734Z,6.80
2023-03-01T21:16:51.549Z,6.90
2023-03-01T21:19:19.147Z,6.90
2023-03-01T21:21:46.519Z,6.90
2023-03-01T21:24:14.287Z,6.80
2023-03-01T21:26:41.956Z,6.80
2023-03-01T21:29:09.356Z,6.80
2023-03-01T21:31:37.250Z,6.80
2023-03-01T21:34:06.280Z,6.80
2023-03-01T21:36:35.225Z,6.80
2023-03-01T21:39:05.583Z,6.70
2023-03-01T21:41:36.146Z,6.70
2023-03-01T21:44:06.687Z,6.60
2023-03-01T21:46:39.544Z,6.50
2023-03-01T21:49:08.941Z,6.40
2023-03-01T21:51:37.068Z,6.40
2023-03-01T21:54:05.936Z,7.00
2023-03-01T21:56:35.372Z,6.40
2023-03-01T21:59:02.846Z,6.40
2023-03-01T22:01:30.307Z,6.30
2023-03-01T22:03:59.341Z,6.40
2023-03-01T22:06:34.203Z,6.30
2023-03-01T22:09:06.775Z,6.30
2023-03-01T22:11:37.275Z,6.30
2023-03-01T22:14:05.700Z,6.20
2023-03-01T22:16:36.906Z,6.20
2023-03-01T22:19:06.900Z,6.20
2023-03-01T22:21:35.392Z,6.20
2023-03-01T22:24:04.070Z,6.20
2023-03-01T22:26:38.400Z,6.20
2023-03-01T22:29:12.748Z,6.20
2023-03-01T22:31:43.849Z,6.10
2023-03-01T22:34:11.817Z,7.30
2023-03-01T22:41:00.253Z,6.10
2023-03-01T22:43:28.173Z,6.00
2023-03-01T22:45:55.806Z,6.00
2023-03-01T22:48:23.707Z,6.00
2023-03-01T22:50:51.182Z,6.00
2023-03-01T22:53:20.751Z,6.50
2023-03-01T22:55:48.197Z,7.00
2023-03-01T22:58:24.783Z,6.00
2023-03-01T23:00:52.364Z,6.00
2023-03-01T23:03:19.768Z,6.00
2023-03-01T23:05:47.102Z,5.90
2023-03-01T23:08:14.453Z,5.90
2023-03-01T23:10:41.972Z,5.90
2023-03-01T23:13:09.531Z,5.50
2023-03-01T23:15:45.907Z,5.90
2023-03-01T23:18:13.329Z,5.90
2023-03-01T23:20:40.648Z,5.90
2023-03-01T23:23:07.909Z,5.90
2023-03-01T23:25:35.272Z,6.00
2023-03-01T23:28:03.527Z,6.00
2023-03-01T23:30:30.909Z,5.90
2023-03-01T23:33:00.153Z,5.90
2023-03-01T23:35:27.921Z,6.00
